sensor_id;sensor_type;location;lat;lon;timestamp;temperature;humidity
25058;DHT22;13057;50.978;11.034;2024-03-23T00:53:09;10.60;99.90
25058;DHT22;13057;50.978;11.034;2024-03-23T00:55:35;10.50;99.90
25058;DHT22;13057;50.978;11.034;2024-03-23T00:58:01;10.40;99.90
25058;DHT22;13057;50.978;11.034;2024-03-23T01:00:27;10.40;99.90
25058;DHT22;13057;50.978;11.034;2024-03-23T01:02:53;10.40;99.90
25058;DHT22;13057;50.978;11.034;2024-03-23T01:05:19;10.40;99.90
25058;DHT22;13057;50.978;11.034;2024-03-23T01:07:45;10.40;99.90
25058;DHT22;13057;50.978;11.034;2024-03-23T01:10:10;10.50;99.90
25058;DHT22;13057;50.978;11.034;2024-03-23T01:12:37;10.40;99.90
25058;DHT22;13057;50.978;11.034;2024-03-23T01:15:04;10.40;99.90
25058;DHT22;13057;50.978;11.034;2024-03-23T01:17:30;10.40;99.90
25058;DHT22;13057;50.978;11.034;2024-03-23T01:19:55;10.30;99.90
25058;DHT22;13057;50.978;11.034;2024-03-23T01:22:21;10.30;99.90
25058;DHT22;13057;50.978;11.034;2024-03-23T01:24:47;10.20;99.90
25058;DHT22;13057;50.978;11.034;2024-03-23T01:27:13;10.20;99.90
25058;DHT22;13057;50.978;11.034;2024-03-23T01:29:40;10.20;99.90
25058;DHT22;13057;50.978;11.034;2024-03-23T01:32:06;10.20;99.90
25058;DHT22;13057;50.978;11.034;2024-03-23T01:34:32;10.20;99.90
25058;DHT22;13057;50.978;11.034;2024-03-23T01:36:59;10.20;99.90
25058;DHT22;13057;50.978;11.034;2024-03-23T01:39:25;10.10;99.90
25058;DHT22;13057;50.978;11.034;2024-03-23T01:41:51;10.10;99.90
25058;DHT22;13057;50.978;11.034;2024-03-23T01:44:17;10.00;99.90
25058;DHT22;13057;50.978;11.034;2024-03-23T01:46:44;10.00;99.90
25058;DHT22;13057;50.978;11.034;2024-03-23T01:49:10;10.00;99.90
25058;DHT22;13057;50.978;11.034;2024-03-23T01:51:37;9.90;99.90
25058;DHT22;13057;50.978;11.034;2024-03-23T01:54:04;9.90;99.90
25058;DHT22;13057;50.978;11.034;2024-03-23T01:56:32;9.90;99.90
25058;DHT22;13057;50.978;11.034;2024-03-23T01:59:02;9.80;99.90
25058;DHT22;13057;50.978;11.034;2024-03-23T02:01:31;9.80;99.90
25058;DHT22;13057;50.978;11.034;2024-03-23T02:03:58;9.80;99.90
25058;DHT22;13057;50.978;11.034;2024-03-23T02:06:25;9.80;99.90
25058;DHT22;13057;50.978;11.034;2024-03-23T02:08:51;9.80;99.90
25058;DHT22;13057;50.978;11.034;2024-03-23T02:11:17;9.80;99.90
25058;DHT22;13057;50.978;11.034;2024-03-23T02:13:43;9.70;99.90
25058;DHT22;13057;50.978;11.034;2024-03-23T02:16:08;9.80;99.90
25058;DHT22;13057;50.978;11.034;2024-03-23T02:18:35;9.70;99.90
25058;DHT22;13057;50.978;11.034;2024-03-23T02:21:01;9.70;99.90
25058;DHT22;13057;50.978;11.034;2024-03-23T02:23:27;9.70;99.90
25058;DHT22;13057;50.978;11.034;2024-03-23T02:25:52;9.80;99.90
25058;DHT22;13057;50.978;11.034;2024-03-23T02:28:19;9.80;99.90
25058;DHT22;13057;50.978;11.034;2024-03-23T02:30:45;9.80;99.90
25058;DHT22;13057;50.978;11.034;2024-03-23T02:33:11;9.80;99.90
25058;DHT22;13057;50.978;11.034;2024-03-23T02:35:37;9.80;99.90
25058;DHT22;13057;50.978;11.034;2024-03-23T02:38:03;9.80;99.90
25058;DHT22;13057;50.978;11.034;2024-03-23T02:40:29;9.80;99.90
25058;DHT22;13057;50.978;11.034;2024-03-23T02:42:56;9.90;99.90
25058;DHT22;13057;50.978;11.034;2024-03-23T02:45:22;9.90;99.90
25058;DHT22;13057;50.978;11.034;2024-03-23T02:47:48;9.90;99.90
25058;DHT22;13057;50.978;11.034;2024-03-23T02:50:18;9.90;99.90
25058;DHT22;13057;50.978;11.034;2024-03-23T02:52:44;9.90;99.90
25058;DHT22;13057;50.978;11.034;2024-03-23T02:55:11;9.90;99.90
25058;DHT22;13057;50.978;11.034;2024-03-23T02:57:37;10.00;99.90
25058;DHT22;13057;50.978;11.034;2024-03-23T03:00:04;9.90;99.90
25058;DHT22;13057;50.978;11.034;2024-03-23T03:02:31;9.90;99.90
25058;DHT22;13057;50.978;11.034;2024-03-23T03:04:58;10.00;99.90
25058;DHT22;13057;50.978;11.034;2024-03-23T03:07:24;10.00;99.90
25058;DHT22;13057;50.978;11.034;2024-03-23T03:09:50;10.00;99.90
25058;DHT22;13057;50.978;11.034;2024-03-23T03:12:16;10.00;99.90
25058;DHT22;13057;50.978;11.034;2024-03-23T03:14:42;9.90;99.90
25058;DHT22;13057;50.978;11.034;2024-03-23T03:17:08;10.00;99.90
25058;DHT22;13057;50.978;11.034;2024-03-23T03:19:34;10.00;99.90
25058;DHT22;13057;50.978;11.034;2024-03-23T03:22:00;10.00;99.90
25058;DHT22;13057;50.978;11.034;2024-03-23T03:24:26;10.00;99.90
25058;DHT22;13057;50.978;11.034;2024-03-23T03:26:52;9.90;99.90
25058;DHT22;13057;50.978;11.034;2024-03-23T03:29:17;9.90;99.90
25058;DHT22;13057;50.978;11.034;2024-03-23T03:31:43;9.90;99.90
25058;DHT22;13057;50.978;11.034;2024-03-23T03:34:10;9.90;99.90
25058;DHT22;13057;50.978;11.034;2024-03-23T03:36:35;10.00;99.90
25058;DHT22;13057;50.978;11.034;2024-03-23T03:39:01;10.00;99.90
25058;DHT22;13057;50.978;11.034;2024-03-23T03:41:31;10.00;99.90
25058;DHT22;13057;50.978;11.034;2024-03-23T03:43:57;10.00;99.90
25058;DHT22;13057;50.978;11.034;2024-03-23T03:46:28;10.00;99.90
25058;DHT22;13057;50.978;11.034;2024-03-23T03:48:54;10.00;99.90
25058;DHT22;13057;50.978;11.034;2024-03-23T03:51:20;10.00;99.90
25058;DHT22;13057;50.978;11.034;2024-03-23T03:53:47;10.10;99.90
25058;DHT22;13057;50.978;11.034;2024-03-23T03:56:13;10.10;99.90
25058;DHT22;13057;50.978;11.034;2024-03-23T03:58:38;10.10;99.90
25058;DHT22;13057;50.978;11.034;2024-03-23T04:01:05;10.10;99.90
25058;DHT22;13057;50.978;11.034;2024-03-23T04:03:31;10.10;99.90
25058;DHT22;13057;50.978;11.034;2024-03-23T04:05:57;10.10;99.90
25058;DHT22;13057;50.978;11.034;2024-03-23T04:08:24;10.00;99.90
25058;DHT22;13057;50.978;11.034;2024-03-23T04:10:50;10.10;99.90
25058;DHT22;13057;50.978;11.034;2024-03-23T04:13:16;10.10;99.90
25058;DHT22;13057;50.978;11.034;2024-03-23T04:15:42;10.10;99.90
25058;DHT22;13057;50.978;11.034;2024-03-23T04:18:08;10.00;99.90
25058;DHT22;13057;50.978;11.034;2024-03-23T04:20:33;10.00;99.90
25058;DHT22;13057;50.978;11.034;2024-03-23T04:23:00;10.00;99.90
25058;DHT22;13057;50.978;11.034;2024-03-23T04:25:25;10.00;99.90
25058;DHT22;13057;50.978;11.034;2024-03-23T04:27:51;9.90;99.90
25058;DHT22;13057;50.978;11.034;2024-03-23T04:30:17;9.90;99.90
25058;DHT22;13057;50.978;11.034;2024-03-23T04:32:43;10.00;99.90
25058;DHT22;13057;50.978;11.034;2024-03-23T04:35:09;9.90;99.90
25058;DHT22;13057;50.978;11.034;2024-03-23T04:37:35;10.00;99.90
25058;DHT22;13057;50.978;11.034;2024-03-23T04:40:02;10.00;99.90
25058;DHT22;13057;50.978;11.034;2024-03-23T04:42:29;10.00;99.90
25058;DHT22;13057;50.978;11.034;2024-03-23T04:44:55;10.00;99.90
25058;DHT22;13057;50.978;11.034;2024-03-23T04:47:21;9.90;99.90
25058;DHT22;13057;50.978;11.034;2024-03-23T04:49:47;9.90;99.90
25058;DHT22;13057;50.978;11.034;2024-03-23T04:52:14;9.90;99.90
25058;DHT22;13057;50.978;11.034;2024-03-23T04:54:41;9.90;99.90
25058;DHT22;13057;50.978;11.034;2024-03-23T04:57:07;9.80;99.90
25058;DHT22;13057;50.978;11.034;2024-03-23T04:59:32;9.80;99.90
25058;DHT22;13057;50.978;11.034;2024-03-23T05:01:59;9.80;99.90
25058;DHT22;13057;50.978;11.034;2024-03-23T05:04:25;9.80;99.90
25058;DHT22;13057;50.978;11.034;2024-03-23T05:06:51;9.80;99.90
25058;DHT22;13057;50.978;11.034;2024-03-23T05:09:17;9.80;99.90
25058;DHT22;13057;50.978;11.034;2024-03-23T05:11:43;9.80;99.90
25058;DHT22;13057;50.978;11.034;2024-03-23T05:14:09;9.80;99.90
25058;DHT22;13057;50.978;11.034;2024-03-23T05:16:34;9.70;99.90
25058;DHT22;13057;50.978;11.034;2024-03-23T05:19:00;9.80;99.90
25058;DHT22;13057;50.978;11.034;2024-03-23T05:21:27;9.80;99.90
25058;DHT22;13057;50.978;11.034;2024-03-23T05:23:54;9.70;99.90
25058;DHT22;13057;50.978;11.034;2024-03-23T05:26:21;9.70;99.90
25058;DHT22;13057;50.978;11.034;2024-03-23T05:28:47;9.70;99.90
25058;DHT22;13057;50.978;11.034;2024-03-23T05:31:23;9.60;99.90
25058;DHT22;13057;50.978;11.034;2024-03-23T05:33:49;9.60;99.90
25058;DHT22;13057;50.978;11.034;2024-03-23T05:36:15;9.60;99.90
25058;DHT22;13057;50.978;11.034;2024-03-23T05:38:41;9.60;99.90
25058;DHT22;13057;50.978;11.034;2024-03-23T05:41:06;9.50;99.90
25058;DHT22;13057;50.978;11.034;2024-03-23T05:43:32;9.50;99.90
25058;DHT22;13057;50.978;11.034;2024-03-23T05:45:59;9.50;99.90
25058;DHT22;13057;50.978;11.034;2024-03-23T05:48:26;9.50;99.90
25058;DHT22;13057;50.978;11.034;2024-03-23T05:50:53;9.50;99.90
25058;DHT22;13057;50.978;11.034;2024-03-23T05:53:20;9.50;99.90
25058;DHT22;13057;50.978;11.034;2024-03-23T05:55:46;9.50;99.90
25058;DHT22;13057;50.978;11.034;2024-03-23T05:58:15;9.50;99.90
25058;DHT22;13057;50.978;11.034;2024-03-23T06:00:41;9.50;99.90
25058;DHT22;13057;50.978;11.034;2024-03-23T06:03:09;9.60;99.90
25058;DHT22;13057;50.978;11.034;2024-03-23T06:05:36;9.50;99.90
25058;DHT22;13057;50.978;11.034;2024-03-23T06:08:03;9.50;99.90
25058;DHT22;13057;50.978;11.034;2024-03-23T06:10:29;9.50;99.90
25058;DHT22;13057;50.978;11.034;2024-03-23T06:12:55;9.60;99.90
25058;DHT22;13057;50.978;11.034;2024-03-23T06:15:21;9.60;99.90
25058;DHT22;13057;50.978;11.034;2024-03-23T06:17:48;9.60;99.90
25058;DHT22;13057;50.978;11.034;2024-03-23T06:20:14;9.50;99.90
25058;DHT22;13057;50.978;11.034;2024-03-23T06:22:40;9.60;99.90
25058;DHT22;13057;50.978;11.034;2024-03-23T06:25:06;9.50;99.90
25058;DHT22;13057;50.978;11.034;2024-03-23T06:27:32;9.50;99.90
25058;DHT22;13057;50.978;11.034;2024-03-23T06:29:59;9.50;99.90
25058;DHT22;13057;50.978;11.034;2024-03-23T06:32:25;9.40;99.90
25058;DHT22;13057;50.978;11.034;2024-03-23T06:34:51;9.20;99.90
25058;DHT22;13057;50.978;11.034;2024-03-23T06:37:17;9.10;99.90
25058;DHT22;13057;50.978;11.034;2024-03-23T06:39:45;8.90;99.90
25058;DHT22;13057;50.978;11.034;2024-03-23T06:42:11;8.90;99.90
25058;DHT22;13057;50.978;11.034;2024-03-23T06:44:37;8.80;99.90
25058;DHT22;13057;50.978;11.034;2024-03-23T06:47:03;8.70;99.90
25058;DHT22;13057;50.978;11.034;2024-03-23T06:49:29;8.70;99.90
25058;DHT22;13057;50.978;11.034;2024-03-23T06:51:55;8.60;99.90
25058;DHT22;13057;50.978;11.034;2024-03-23T06:54:21;8.50;99.90
25058;DHT22;13057;50.978;11.034;2024-03-23T06:56:47;8.40;99.90
25058;DHT22;13057;50.978;11.034;2024-03-23T06:59:13;8.40;99.90
25058;DHT22;13057;50.978;11.034;2024-03-23T07:01:38;8.40;99.90
25058;DHT22;13057;50.978;11.034;2024-03-23T07:04:05;8.30;99.90
25058;DHT22;13057;50.978;11.034;2024-03-23T07:06:31;8.30;99.90
25058;DHT22;13057;50.978;11.034;2024-03-23T07:08:57;8.20;99.90
25058;DHT22;13057;50.978;11.034;2024-03-23T07:11:23;8.10;99.90
25058;DHT22;13057;50.978;11.034;2024-03-23T07:13:53;8.00;99.90
25058;DHT22;13057;50.978;11.034;2024-03-23T07:16:23;8.00;99.90
25058;DHT22;13057;50.978;11.034;2024-03-23T07:18:50;7.90;99.90
25058;DHT22;13057;50.978;11.034;2024-03-23T07:21:16;7.90;99.90
25058;DHT22;13057;50.978;11.034;2024-03-23T07:23:42;7.90;99.90
25058;DHT22;13057;50.978;11.034;2024-03-23T07:26:12;8.00;99.90
25058;DHT22;13057;50.978;11.034;2024-03-23T07:28:38;7.90;99.90
25058;DHT22;13057;50.978;11.034;2024-03-23T07:31:20;7.90;99.90
25058;DHT22;13057;50.978;11.034;2024-03-23T07:33:48;7.90;99.90
25058;DHT22;13057;50.978;11.034;2024-03-23T07:36:14;7.90;99.90
25058;DHT22;13057;50.978;11.034;2024-03-23T07:38:42;8.00;99.90
25058;DHT22;13057;50.978;11.034;2024-03-23T07:41:11;8.00;99.90
25058;DHT22;13057;50.978;11.034;2024-03-23T07:43:38;8.00;99.90
25058;DHT22;13057;50.978;11.034;2024-03-23T07:46:05;8.00;99.90
25058;DHT22;13057;50.978;11.034;2024-03-23T07:48:31;7.80;99.90
25058;DHT22;13057;50.978;11.034;2024-03-23T07:51:02;7.60;99.90
25058;DHT22;13057;50.978;11.034;2024-03-23T07:53:29;7.50;99.90
25058;DHT22;13057;50.978;11.034;2024-03-23T07:55:56;7.50;99.90
25058;DHT22;13057;50.978;11.034;2024-03-23T07:58:23;7.40;99.90
25058;DHT22;13057;50.978;11.034;2024-03-23T08:00:50;7.40;99.90
25058;DHT22;13057;50.978;11.034;2024-03-23T08:03:15;7.30;99.90
25058;DHT22;13057;50.978;11.034;2024-03-23T08:05:41;7.20;99.90
25058;DHT22;13057;50.978;11.034;2024-03-23T08:08:08;7.10;99.90
25058;DHT22;13057;50.978;11.034;2024-03-23T08:10:50;7.00;99.90
25058;DHT22;13057;50.978;11.034;2024-03-23T08:13:20;7.00;99.90
25058;DHT22;13057;50.978;11.034;2024-03-23T08:15:45;7.00;99.90
25058;DHT22;13057;50.978;11.034;2024-03-23T08:18:12;6.90;99.90
25058;DHT22;13057;50.978;11.034;2024-03-23T08:20:41;6.90;99.90
25058;DHT22;13057;50.978;11.034;2024-03-23T08:23:08;6.90;99.90
25058;DHT22;13057;50.978;11.034;2024-03-23T08:25:34;6.90;99.90
25058;DHT22;13057;50.978;11.034;2024-03-23T08:28:00;6.80;99.90
25058;DHT22;13057;50.978;11.034;2024-03-23T08:30:27;6.80;99.90
25058;DHT22;13057;50.978;11.034;2024-03-23T08:32:53;6.80;99.90
25058;DHT22;13057;50.978;11.034;2024-03-23T08:35:19;6.80;99.90
25058;DHT22;13057;50.978;11.034;2024-03-23T08:37:45;6.80;99.90
25058;DHT22;13057;50.978;11.034;2024-03-23T08:40:12;6.80;99.90
25058;DHT22;13057;50.978;11.034;2024-03-23T08:42:38;6.70;99.90
25058;DHT22;13057;50.978;11.034;2024-03-23T08:45:04;6.80;99.90
25058;DHT22;13057;50.978;11.034;2024-03-23T08:47:34;6.80;99.90
25058;DHT22;13057;50.978;11.034;2024-03-23T08:50:01;6.80;99.90
25058;DHT22;13057;50.978;11.034;2024-03-23T08:52:27;6.90;99.90
25058;DHT22;13057;50.978;11.034;2024-03-23T08:54:55;6.90;99.90
25058;DHT22;13057;50.978;11.034;2024-03-23T08:57:23;6.90;99.90
25058;DHT22;13057;50.978;11.034;2024-03-23T08:59:49;6.90;99.90
25058;DHT22;13057;50.978;11.034;2024-03-23T09:02:15;7.00;99.90
25058;DHT22;13057;50.978;11.034;2024-03-23T09:04:41;7.00;99.90
25058;DHT22;13057;50.978;11.034;2024-03-23T09:07:07;7.20;99.90
25058;DHT22;13057;50.978;11.034;2024-03-23T09:09:33;7.30;99.90
25058;DHT22;13057;50.978;11.034;2024-03-23T09:11:59;7.30;99.90
25058;DHT22;13057;50.978;11.034;2024-03-23T09:14:25;7.40;99.90
25058;DHT22;13057;50.978;11.034;2024-03-23T09:16:52;7.50;99.90
25058;DHT22;13057;50.978;11.034;2024-03-23T09:19:18;7.50;99.90
25058;DHT22;13057;50.978;11.034;2024-03-23T09:21:44;7.60;99.90
25058;DHT22;13057;50.978;11.034;2024-03-23T09:24:11;7.60;99.90
25058;DHT22;13057;50.978;11.034;2024-03-23T09:26:37;7.70;99.90
25058;DHT22;13057;50.978;11.034;2024-03-23T09:29:04;7.90;99.90
25058;DHT22;13057;50.978;11.034;2024-03-23T09:31:30;8.00;99.90
25058;DHT22;13057;50.978;11.034;2024-03-23T09:33:58;8.00;99.90
25058;DHT22;13057;50.978;11.034;2024-03-23T09:36:25;7.90;99.90
25058;DHT22;13057;50.978;11.034;2024-03-23T09:38:51;7.90;99.90
25058;DHT22;13057;50.978;11.034;2024-03-23T09:41:29;7.90;99.90
25058;DHT22;13057;50.978;11.034;2024-03-23T09:44:23;8.00;99.90
25058;DHT22;13057;50.978;11.034;2024-03-23T09:46:52;8.10;99.90
25058;DHT22;13057;50.978;11.034;2024-03-23T09:49:18;8.10;99.90
25058;DHT22;13057;50.978;11.034;2024-03-23T09:51:44;8.20;99.90
25058;DHT22;13057;50.978;11.034;2024-03-23T09:54:10;8.30;99.90
25058;DHT22;13057;50.978;11.034;2024-03-23T09:56:36;8.30;99.90
25058;DHT22;13057;50.978;11.034;2024-03-23T09:59:02;8.30;99.90
25058;DHT22;13057;50.978;11.034;2024-03-23T10:01:30;8.40;99.90
25058;DHT22;13057;50.978;11.034;2024-03-23T10:03:57;8.40;99.90
25058;DHT22;13057;50.978;11.034;2024-03-23T10:06:23;8.40;99.90
25058;DHT22;13057;50.978;11.034;2024-03-23T10:08:52;8.50;99.90
25058;DHT22;13057;50.978;11.034;2024-03-23T10:11:19;8.60;99.90
25058;DHT22;13057;50.978;11.034;2024-03-23T10:13:46;8.70;99.90
25058;DHT22;13057;50.978;11.034;2024-03-23T10:16:21;8.70;99.90
25058;DHT22;13057;50.978;11.034;2024-03-23T10:18:47;8.90;99.90
25058;DHT22;13057;50.978;11.034;2024-03-23T10:21:15;9.00;99.90
25058;DHT22;13057;50.978;11.034;2024-03-23T10:23:42;9.10;99.90
25058;DHT22;13057;50.978;11.034;2024-03-23T10:26:17;9.20;99.90
25058;DHT22;13057;50.978;11.034;2024-03-23T10:28:55;9.30;99.90
25058;DHT22;13057;50.978;11.034;2024-03-23T10:31:34;9.30;99.90
25058;DHT22;13057;50.978;11.034;2024-03-23T10:34:03;9.30;99.90
25058;DHT22;13057;50.978;11.034;2024-03-23T10:36:29;9.30;99.90
25058;DHT22;13057;50.978;11.034;2024-03-23T10:38:56;9.20;99.90
25058;DHT22;13057;50.978;11.034;2024-03-23T10:41:27;9.30;99.90
25058;DHT22;13057;50.978;11.034;2024-03-23T10:43:55;9.40;99.90
25058;DHT22;13057;50.978;11.034;2024-03-23T10:46:23;9.50;99.90
25058;DHT22;13057;50.978;11.034;2024-03-23T10:48:49;9.60;99.90
25058;DHT22;13057;50.978;11.034;2024-03-23T10:51:21;9.70;99.90
25058;DHT22;13057;50.978;11.034;2024-03-23T10:54:04;9.90;99.90
25058;DHT22;13057;50.978;11.034;2024-03-23T10:56:57;10.10;99.90
25058;DHT22;13057;50.978;11.034;2024-03-23T10:59:26;10.30;99.90
25058;DHT22;13057;50.978;11.034;2024-03-23T11:01:54;10.30;99.90
25058;DHT22;13057;50.978;11.034;2024-03-23T11:04:33;10.20;99.90
25058;DHT22;13057;50.978;11.034;2024-03-23T11:07:00;10.20;99.90
25058;DHT22;13057;50.978;11.034;2024-03-23T11:09:38;10.20;99.90
25058;DHT22;13057;50.978;11.034;2024-03-23T11:12:24;10.10;99.90
25058;DHT22;13057;50.978;11.034;2024-03-23T11:14:54;10.10;99.90
25058;DHT22;13057;50.978;11.034;2024-03-23T11:17:21;10.20;99.90
25058;DHT22;13057;50.978;11.034;2024-03-23T11:19:59;10.20;99.90
25058;DHT22;13057;50.978;11.034;2024-03-23T11:22:46;10.10;99.90
25058;DHT22;13057;50.978;11.034;2024-03-23T11:25:14;10.10;99.90
25058;DHT22;13057;50.978;11.034;2024-03-23T11:27:41;10.10;99.90
25058;DHT22;13057;50.978;11.034;2024-03-23T11:30:12;10.40;99.90
25058;DHT22;13057;50.978;11.034;2024-03-23T11:32:39;10.50;99.90
25058;DHT22;13057;50.978;11.034;2024-03-23T11:35:06;10.40;99.90
25058;DHT22;13057;50.978;11.034;2024-03-23T11:37:32;10.40;99.90
25058;DHT22;13057;50.978;11.034;2024-03-23T11:39:57;10.30;99.90
25058;DHT22;13057;50.978;11.034;2024-03-23T11:42:23;10.30;99.90
25058;DHT22;13057;50.978;11.034;2024-03-23T11:44:50;10.20;99.90
25058;DHT22;13057;50.978;11.034;2024-03-23T11:47:16;10.10;99.90
25058;DHT22;13057;50.978;11.034;2024-03-23T11:49:42;10.10;99.90
25058;DHT22;13057;50.978;11.034;2024-03-23T11:52:08;10.20;99.90
25058;DHT22;13057;50.978;11.034;2024-03-23T11:54:33;10.30;99.90
25058;DHT22;13057;50.978;11.034;2024-03-23T11:57:04;10.10;99.90
25058;DHT22;13057;50.978;11.034;2024-03-23T11:59:35;9.80;99.90
25058;DHT22;13057;50.978;11.034;2024-03-23T12:02:05;9.50;99.90
25058;DHT22;13057;50.978;11.034;2024-03-23T12:04:32;9.30;99.90
25058;DHT22;13057;50.978;11.034;2024-03-23T12:07:10;9.30;99.90
25058;DHT22;13057;50.978;11.034;2024-03-23T12:09:37;9.20;99.90
25058;DHT22;13057;50.978;11.034;2024-03-23T12:12:11;9.20;99.90
25058;DHT22;13057;50.978;11.034;2024-03-23T12:14:38;9.20;99.90
25058;DHT22;13057;50.978;11.034;2024-03-23T12:17:12;9.20;99.90
25058;DHT22;13057;50.978;11.034;2024-03-23T12:19:40;9.30;99.90
25058;DHT22;13057;50.978;11.034;2024-03-23T12:22:07;9.30;99.90
25058;DHT22;13057;50.978;11.034;2024-03-23T12:24:34;9.40;99.90
25058;DHT22;13057;50.978;11.034;2024-03-23T12:27:02;9.50;99.90
25058;DHT22;13057;50.978;11.034;2024-03-23T12:29:29;9.60;99.90
25058;DHT22;13057;50.978;11.034;2024-03-23T12:31:59;9.70;99.90
25058;DHT22;13057;50.978;11.034;2024-03-23T12:34:25;9.70;99.90
25058;DHT22;13057;50.978;11.034;2024-03-23T12:36:51;9.90;99.90
25058;DHT22;13057;50.978;11.034;2024-03-23T12:39:16;10.30;99.90
25058;DHT22;13057;50.978;11.034;2024-03-23T12:41:43;10.70;99.90
25058;DHT22;13057;50.978;11.034;2024-03-23T12:44:08;10.80;99.90
25058;DHT22;13057;50.978;11.034;2024-03-23T12:46:37;10.50;99.70
25058;DHT22;13057;50.978;11.034;2024-03-23T12:49:04;10.50;99.90
25058;DHT22;13057;50.978;11.034;2024-03-23T12:51:30;10.40;99.70
25058;DHT22;13057;50.978;11.034;2024-03-23T12:53:56;10.50;99.90
25058;DHT22;13057;50.978;11.034;2024-03-23T12:56:22;10.90;99.90
25058;DHT22;13057;50.978;11.034;2024-03-23T12:58:48;11.20;99.80
25058;DHT22;13057;50.978;11.034;2024-03-23T13:01:18;11.10;99.90
25058;DHT22;13057;50.978;11.034;2024-03-23T13:03:47;11.00;98.60
25058;DHT22;13057;50.978;11.034;2024-03-23T13:06:13;10.90;97.40
25058;DHT22;13057;50.978;11.034;2024-03-23T13:08:39;10.70;97.50
25058;DHT22;13057;50.978;11.034;2024-03-23T13:11:07;10.70;98.30
25058;DHT22;13057;50.978;11.034;2024-03-23T13:13:34;11.00;99.90
25058;DHT22;13057;50.978;11.034;2024-03-23T13:16:00;10.90;97.20
25058;DHT22;13057;50.978;11.034;2024-03-23T13:18:26;10.90;97.40
25058;DHT22;13057;50.978;11.034;2024-03-23T13:20:52;10.80;97.20
25058;DHT22;13057;50.978;11.034;2024-03-23T13:23:18;10.80;97.60
25058;DHT22;13057;50.978;11.034;2024-03-23T13:25:52;10.90;97.60
25058;DHT22;13057;50.978;11.034;2024-03-23T13:28:20;10.90;95.90
25058;DHT22;13057;50.978;11.034;2024-03-23T13:30:51;11.20;98.50
25058;DHT22;13057;50.978;11.034;2024-03-23T13:33:17;11.20;94.50
25058;DHT22;13057;50.978;11.034;2024-03-23T13:35:52;11.20;95.40
25058;DHT22;13057;50.978;11.034;2024-03-23T13:38:19;11.20;95.30
25058;DHT22;13057;50.978;11.034;2024-03-23T13:40:56;11.20;94.80
25058;DHT22;13057;50.978;11.034;2024-03-23T13:43:23;11.20;94.40
25058;DHT22;13057;50.978;11.034;2024-03-23T13:45:52;11.20;95.30
25058;DHT22;13057;50.978;11.034;2024-03-23T13:48:20;11.20;95.10
25058;DHT22;13057;50.978;11.034;2024-03-23T13:50:46;11.40;99.80
25058;DHT22;13057;50.978;11.034;2024-03-23T13:53:14;11.60;99.50
25058;DHT22;13057;50.978;11.034;2024-03-23T13:55:46;11.80;98.80
25058;DHT22;13057;50.978;11.034;2024-03-23T13:58:15;11.90;99.90
25058;DHT22;13057;50.978;11.034;2024-03-23T14:00:40;12.20;99.90
25058;DHT22;13057;50.978;11.034;2024-03-23T14:03:10;12.50;99.90
25058;DHT22;13057;50.978;11.034;2024-03-23T14:05:37;11.90;99.90
25058;DHT22;13057;50.978;11.034;2024-03-23T14:08:06;11.40;99.90
25058;DHT22;13057;50.978;11.034;2024-03-23T14:10:32;10.90;99.90
25058;DHT22;13057;50.978;11.034;2024-03-23T14:12:58;10.60;99.90
25058;DHT22;13057;50.978;11.034;2024-03-23T14:15:26;10.40;99.90
25058;DHT22;13057;50.978;11.034;2024-03-23T14:17:52;10.30;99.90
25058;DHT22;13057;50.978;11.034;2024-03-23T14:20:20;10.20;99.90
25058;DHT22;13057;50.978;11.034;2024-03-23T14:22:47;10.10;99.90
25058;DHT22;13057;50.978;11.034;2024-03-23T14:25:13;10.00;99.90
25058;DHT22;13057;50.978;11.034;2024-03-23T14:27:40;9.80;99.90
25058;DHT22;13057;50.978;11.034;2024-03-23T14:30:06;9.80;99.90
25058;DHT22;13057;50.978;11.034;2024-03-23T14:32:33;9.80;99.90
25058;DHT22;13057;50.978;11.034;2024-03-23T14:35:01;9.80;99.90
25058;DHT22;13057;50.978;11.034;2024-03-23T14:37:28;9.90;99.90
25058;DHT22;13057;50.978;11.034;2024-03-23T14:39:56;10.00;99.90
25058;DHT22;13057;50.978;11.034;2024-03-23T14:42:22;10.10;99.90
25058;DHT22;13057;50.978;11.034;2024-03-23T14:44:49;10.10;99.90
25058;DHT22;13057;50.978;11.034;2024-03-23T14:47:16;10.00;99.90
25058;DHT22;13057;50.978;11.034;2024-03-23T14:49:43;10.00;99.90
25058;DHT22;13057;50.978;11.034;2024-03-23T14:52:13;10.00;99.90
25058;DHT22;13057;50.978;11.034;2024-03-23T14:54:39;10.00;99.90
25058;DHT22;13057;50.978;11.034;2024-03-23T14:57:05;10.00;99.90
25058;DHT22;13057;50.978;11.034;2024-03-23T14:59:33;9.90;99.90
25058;DHT22;13057;50.978;11.034;2024-03-23T15:01:58;10.00;99.90
25058;DHT22;13057;50.978;11.034;2024-03-23T15:04:25;10.00;99.80
25058;DHT22;13057;50.978;11.034;2024-03-23T15:06:51;10.20;99.90
25058;DHT22;13057;50.978;11.034;2024-03-23T15:09:17;10.40;98.80
25058;DHT22;13057;50.978;11.034;2024-03-23T15:11:49;10.30;98.40
25058;DHT22;13057;50.978;11.034;2024-03-23T15:14:16;10.40;99.80
25058;DHT22;13057;50.978;11.034;2024-03-23T15:16:41;10.40;98.40
25058;DHT22;13057;50.978;11.034;2024-03-23T15:19:08;10.60;98.70
25058;DHT22;13057;50.978;11.034;2024-03-23T15:21:35;10.50;98.30
25058;DHT22;13057;50.978;11.034;2024-03-23T15:24:01;10.30;98.60
25058;DHT22;13057;50.978;11.034;2024-03-23T15:26:26;10.30;98.70
25058;DHT22;13057;50.978;11.034;2024-03-23T15:28:52;10.20;99.20
25058;DHT22;13057;50.978;11.034;2024-03-23T15:31:35;10.10;99.60
25058;DHT22;13057;50.978;11.034;2024-03-23T15:34:01;9.90;99.90
25058;DHT22;13057;50.978;11.034;2024-03-23T15:36:27;9.90;99.90
25058;DHT22;13057;50.978;11.034;2024-03-23T15:38:53;9.70;99.90
25058;DHT22;13057;50.978;11.034;2024-03-23T15:41:20;9.50;99.90
25058;DHT22;13057;50.978;11.034;2024-03-23T15:43:49;9.40;99.90
25058;DHT22;13057;50.978;11.034;2024-03-23T15:46:14;9.40;99.90
25058;DHT22;13057;50.978;11.034;2024-03-23T15:48:41;9.40;99.90
25058;DHT22;13057;50.978;11.034;2024-03-23T15:51:12;9.50;99.90
25058;DHT22;13057;50.978;11.034;2024-03-23T15:53:38;9.60;99.90
25058;DHT22;13057;50.978;11.034;2024-03-23T15:56:04;9.60;99.90
25058;DHT22;13057;50.978;11.034;2024-03-23T15:58:31;9.50;99.90
25058;DHT22;13057;50.978;11.034;2024-03-23T16:01:00;9.40;99.90
25058;DHT22;13057;50.978;11.034;2024-03-23T16:03:26;9.50;99.90
25058;DHT22;13057;50.978;11.034;2024-03-23T16:05:55;9.40;99.90
25058;DHT22;13057;50.978;11.034;2024-03-23T16:08:21;9.30;99.90
25058;DHT22;13057;50.978;11.034;2024-03-23T16:10:48;9.30;99.90
25058;DHT22;13057;50.978;11.034;2024-03-23T16:13:14;9.30;99.90
25058;DHT22;13057;50.978;11.034;2024-03-23T16:15:40;9.30;99.90
25058;DHT22;13057;50.978;11.034;2024-03-23T16:18:06;9.20;99.90